sensor_id;sensor_type;location;lat;lon;timestamp;P1;durP1;ratioP1;P2;durP2;ratioP2
39930;SDS011;26635;-35.248;149.138;2023-02-07T00:02:00;4.45;;;3.22;;
39930;SDS011;26635;-35.248;149.138;2023-02-07T00:04:31;5.60;;;3.03;;
39930;SDS011;26635;-35.248;149.138;2023-02-07T00:07:03;5.90;;;3.33;;
39930;SDS011;26635;-35.248;149.138;2023-02-07T00:09:34;4.47;;;3.53;;
39930;SDS011;26635;-35.248;149.138;2023-02-07T00:12:06;5.90;;;3.53;;
39930;SDS011;26635;-35.248;149.138;2023-02-07T00:14:36;4.47;;;3.13;;
39930;SDS011;26635;-35.248;149.138;2023-02-07T00:17:07;4.60;;;3.55;;
39930;SDS011;26635;-35.248;149.138;2023-02-07T00:19:37;6.28;;;3.22;;
39930;SDS011;26635;-35.248;149.138;2023-02-07T00:22:08;4.55;;;3.22;;
39930;SDS011;26635;-35.248;149.138;2023-02-07T00:24:38;4.85;;;3.50;;
39930;SDS011;26635;-35.248;149.138;2023-02-07T00:27:08;4.72;;;2.80;;
39930;SDS011;26635;-35.248;149.138;2023-02-07T00:29:39;5.03;;;3.38;;
39930;SDS011;26635;-35.248;149.138;2023-02-07T00:32:10;7.03;;;3.28;;
39930;SDS011;26635;-35.248;149.138;2023-02-07T00:34:40;4.75;;;3.08;;
39930;SDS011;26635;-35.248;149.138;2023-02-07T00:37:11;5.43;;;3.22;;
39930;SDS011;26635;-35.248;149.138;2023-02-07T00:39:41;5.70;;;3.30;;
39930;SDS011;26635;-35.248;149.138;2023-02-07T00:42:12;7.07;;;3.58;;
39930;SDS011;26635;-35.248;149.138;2023-02-07T00:44:43;5.50;;;3.67;;
39930;SDS011;26635;-35.248;149.138;2023-02-07T00:47:13;5.28;;;3.25;;
39930;SDS011;26635;-35.248;149.138;2023-02-07T00:49:44;5.03;;;3.58;;
39930;SDS011;26635;-35.248;149.138;2023-02-07T00:52:18;4.25;;;2.83;;
39930;SDS011;26635;-35.248;149.138;2023-02-07T00:54:48;3.97;;;2.65;;
39930;SDS011;26635;-35.248;149.138;2023-02-07T00:57:19;4.75;;;3.05;;
39930;SDS011;26635;-35.248;149.138;2023-02-07T00:59:50;5.85;;;3.38;;
39930;SDS011;26635;-35.248;149.138;2023-02-07T01:02:21;4.97;;;3.08;;
39930;SDS011;26635;-35.248;149.138;2023-02-07T01:04:52;4.63;;;3.15;;
39930;SDS011;26635;-35.248;149.138;2023-02-07T01:07:23;4.97;;;2.80;;
39930;SDS011;26635;-35.248;149.138;2023-02-07T01:09:53;4.03;;;3.13;;
39930;SDS011;26635;-35.248;149.138;2023-02-07T01:12:25;4.40;;;2.60;;
39930;SDS011;26635;-35.248;149.138;2023-02-07T01:14:57;4.60;;;3.40;;
39930;SDS011;26635;-35.248;149.138;2023-02-07T01:17:28;4.38;;;3.33;;
39930;SDS011;26635;-35.248;149.138;2023-02-07T01:20:00;4.55;;;3.20;;
39930;SDS011;26635;-35.248;149.138;2023-02-07T01:22:32;5.10;;;4.05;;
39930;SDS011;26635;-35.248;149.138;2023-02-07T01:25:04;6.30;;;3.60;;
39930;SDS011;26635;-35.248;149.138;2023-02-07T01:27:36;4.55;;;3.45;;
39930;SDS011;26635;-35.248;149.138;2023-02-07T01:30:08;5.97;;;4.25;;
39930;SDS011;26635;-35.248;149.138;2023-02-07T01:32:39;6.57;;;4.03;;
39930;SDS011;26635;-35.248;149.138;2023-02-07T01:35:10;5.80;;;3.45;;
39930;SDS011;26635;-35.248;149.138;2023-02-07T01:37:40;7.00;;;4.03;;
39930;SDS011;26635;-35.248;149.138;2023-02-07T01:40:11;5.32;;;3.50;;
39930;SDS011;26635;-35.248;149.138;2023-02-07T01:42:42;6.00;;;4.00;;
39930;SDS011;26635;-35.248;149.138;2023-02-07T01:45:26;4.05;;;3.55;;
39930;SDS011;26635;-35.248;149.138;2023-02-07T01:48:10;4.70;;;3.38;;
39930;SDS011;26635;-35.248;149.138;2023-02-07T01:50:46;6.22;;;3.50;;
39930;SDS011;26635;-35.248;149.138;2023-02-07T01:53:23;5.13;;;3.80;;
39930;SDS011;26635;-35.248;149.138;2023-02-07T01:55:57;4.70;;;3.38;;
39930;SDS011;26635;-35.248;149.138;2023-02-07T01:58:32;7.25;;;3.55;;
39930;SDS011;26635;-35.248;149.138;2023-02-07T02:01:04;4.10;;;3.10;;
39930;SDS011;26635;-35.248;149.138;2023-02-07T02:03:40;5.35;;;3.70;;
39930;SDS011;26635;-35.248;149.138;2023-02-07T02:06:15;4.72;;;3.47;;
39930;SDS011;26635;-35.248;149.138;2023-02-07T02:08:47;5.40;;;3.42;;
39930;SDS011;26635;-35.248;149.138;2023-02-07T02:17:09;3.95;;;3.25;;
39930;SDS011;26635;-35.248;149.138;2023-02-07T02:22:54;5.63;;;3.72;;
39930;SDS011;26635;-35.248;149.138;2023-02-07T02:37:31;3.58;;;3.10;;
39930;SDS011;26635;-35.248;149.138;2023-02-07T02:43:23;4.57;;;3.10;;
39930;SDS011;26635;-35.248;149.138;2023-02-07T02:45:50;4.20;;;3.00;;
39930;SDS011;26635;-35.248;149.138;2023-02-07T02:48:28;5.57;;;3.05;;
39930;SDS011;26635;-35.248;149.138;2023-02-07T02:51:02;4.03;;;2.60;;
39930;SDS011;26635;-35.248;149.138;2023-02-07T02:53:33;3.60;;;2.95;;
39930;SDS011;26635;-35.248;149.138;2023-02-07T03:05:12;4.05;;;2.97;;
39930;SDS011;26635;-35.248;149.138;2023-02-07T03:13:39;4.60;;;2.55;;
39930;SDS011;26635;-35.248;149.138;2023-02-07T03:16:32;2.90;;;2.35;;
39930;SDS011;26635;-35.248;149.138;2023-02-07T03:19:26;5.47;;;2.58;;
39930;SDS011;26635;-35.248;149.138;2023-02-07T03:22:02;4.00;;;2.20;;
39930;SDS011;26635;-35.248;149.138;2023-02-07T03:24:46;3.65;;;2.30;;
39930;SDS011;26635;-35.248;149.138;2023-02-07T03:27:23;4.35;;;2.55;;
39930;SDS011;26635;-35.248;149.138;2023-02-07T03:29:58;4.43;;;2.90;;
39930;SDS011;26635;-35.248;149.138;2023-02-07T03:32:34;3.42;;;2.95;;
39930;SDS011;26635;-35.248;149.138;2023-02-07T03:37:54;4.88;;;2.92;;
39930;SDS011;26635;-35.248;149.138;2023-02-07T03:40:28;5.70;;;2.63;;
39930;SDS011;26635;-35.248;149.138;2023-02-07T03:45:38;4.53;;;2.35;;
39930;SDS011;26635;-35.248;149.138;2023-02-07T03:48:09;4.18;;;2.45;;
39930;SDS011;26635;-35.248;149.138;2023-02-07T03:50:41;4.07;;;2.35;;
39930;SDS011;26635;-35.248;149.138;2023-02-07T03:53:11;4.07;;;2.55;;
39930;SDS011;26635;-35.248;149.138;2023-02-07T03:55:42;3.53;;;2.45;;
39930;SDS011;26635;-35.248;149.138;2023-02-07T03:58:13;3.25;;;2.17;;
39930;SDS011;26635;-35.248;149.138;2023-02-07T04:00:44;5.18;;;2.70;;
39930;SDS011;26635;-35.248;149.138;2023-02-07T04:03:14;3.92;;;2.03;;
39930;SDS011;26635;-35.248;149.138;2023-02-07T04:05:45;4.03;;;2.70;;
39930;SDS011;26635;-35.248;149.138;2023-02-07T04:08:25;3.38;;;2.65;;
39930;SDS011;26635;-35.248;149.138;2023-02-07T04:10:58;3.67;;;2.17;;
39930;SDS011;26635;-35.248;149.138;2023-02-07T04:13:29;3.08;;;2.08;;
39930;SDS011;26635;-35.248;149.138;2023-02-07T04:16:01;3.88;;;2.88;;
39930;SDS011;26635;-35.248;149.138;2023-02-07T04:18:34;2.72;;;1.98;;
39930;SDS011;26635;-35.248;149.138;2023-02-07T04:21:05;3.03;;;2.30;;
39930;SDS011;26635;-35.248;149.138;2023-02-07T04:23:38;3.92;;;2.78;;
39930;SDS011;26635;-35.248;149.138;2023-02-07T04:26:08;5.43;;;2.70;;
39930;SDS011;26635;-35.248;149.138;2023-02-07T04:28:41;3.20;;;2.60;;
39930;SDS011;26635;-35.248;149.138;2023-02-07T04:31:12;4.93;;;2.58;;
39930;SDS011;26635;-35.248;149.138;2023-02-07T04:33:43;3.90;;;2.67;;
39930;SDS011;26635;-35.248;149.138;2023-02-07T04:36:14;4.03;;;2.53;;
39930;SDS011;26635;-35.248;149.138;2023-02-07T04:38:45;4.22;;;2.45;;
39930;SDS011;26635;-35.248;149.138;2023-02-07T04:41:15;4.78;;;2.65;;
39930;SDS011;26635;-35.248;149.138;2023-02-07T04:43:46;5.55;;;2.70;;
39930;SDS011;26635;-35.248;149.138;2023-02-07T04:46:17;2.80;;;2.50;;
39930;SDS011;26635;-35.248;149.138;2023-02-07T04:48:48;2.70;;;2.50;;
39930;SDS011;26635;-35.248;149.138;2023-02-07T04:51:19;5.28;;;3.20;;
39930;SDS011;26635;-35.248;149.138;2023-02-07T04:53:50;2.58;;;2.22;;
39930;SDS011;26635;-35.248;149.138;2023-02-07T04:56:21;3.83;;;2.60;;
39930;SDS011;26635;-35.248;149.138;2023-02-07T04:58:53;6.40;;;3.10;;
39930;SDS011;26635;-35.248;149.138;2023-02-07T05:01:23;5.35;;;3.22;;
39930;SDS011;26635;-35.248;149.138;2023-02-07T05:03:54;3.92;;;2.72;;
39930;SDS011;26635;-35.248;149.138;2023-02-07T05:06:25;4.47;;;2.47;;
39930;SDS011;26635;-35.248;149.138;2023-02-07T05:08:56;4.05;;;2.20;;
39930;SDS011;26635;-35.248;149.138;2023-02-07T05:11:27;6.07;;;2.85;;
39930;SDS011;26635;-35.248;149.138;2023-02-07T05:13:58;5.18;;;2.65;;
39930;SDS011;26635;-35.248;149.138;2023-02-07T05:16:28;4.72;;;2.80;;
39930;SDS011;26635;-35.248;149.138;2023-02-07T05:18:59;5.63;;;2.60;;
39930;SDS011;26635;-35.248;149.138;2023-02-07T05:21:29;3.97;;;2.63;;
39930;SDS011;26635;-35.248;149.138;2023-02-07T05:24:03;3.80;;;2.28;;
39930;SDS011;26635;-35.248;149.138;2023-02-07T05:26:34;3.50;;;2.25;;
39930;SDS011;26635;-35.248;149.138;2023-02-07T05:29:06;6.03;;;2.72;;
39930;SDS011;26635;-35.248;149.138;2023-02-07T05:31:37;3.78;;;1.90;;
39930;SDS011;26635;-35.248;149.138;2023-02-07T05:34:25;3.97;;;2.53;;
39930;SDS011;26635;-35.248;149.138;2023-02-07T05:36:55;3.05;;;1.83;;
39930;SDS011;26635;-35.248;149.138;2023-02-07T05:39:26;3.78;;;1.73;;
39930;SDS011;26635;-35.248;149.138;2023-02-07T05:41:56;4.78;;;2.00;;
39930;SDS011;26635;-35.248;149.138;2023-02-07T05:44:27;5.60;;;1.90;;
39930;SDS011;26635;-35.248;149.138;2023-02-07T05:46:57;6.63;;;2.05;;
39930;SDS011;26635;-35.248;149.138;2023-02-07T05:49:27;2.83;;;1.92;;
39930;SDS011;26635;-35.248;149.138;2023-02-07T05:51:57;2.42;;;1.63;;
39930;SDS011;26635;-35.248;149.138;2023-02-07T05:54:28;4.15;;;2.17;;
39930;SDS011;26635;-35.248;149.138;2023-02-07T05:56:58;2.88;;;1.63;;
39930;SDS011;26635;-35.248;149.138;2023-02-07T05:59:29;3.00;;;1.58;;
39930;SDS011;26635;-35.248;149.138;2023-02-07T06:02:02;5.53;;;1.83;;
39930;SDS011;26635;-35.248;149.138;2023-02-07T06:04:33;2.10;;;1.70;;
39930;SDS011;26635;-35.248;149.138;2023-02-07T06:07:04;5.25;;;2.00;;
39930;SDS011;26635;-35.248;149.138;2023-02-07T06:09:34;6.63;;;2.47;;
39930;SDS011;26635;-35.248;149.138;2023-02-07T06:12:05;2.92;;;1.63;;
39930;SDS011;26635;-35.248;149.138;2023-02-07T06:14:35;3.38;;;1.75;;
39930;SDS011;26635;-35.248;149.138;2023-02-07T06:17:06;2.28;;;1.90;;
39930;SDS011;26635;-35.248;149.138;2023-02-07T06:19:36;2.72;;;1.65;;
39930;SDS011;26635;-35.248;149.138;2023-02-07T06:22:06;2.60;;;1.67;;
39930;SDS011;26635;-35.248;149.138;2023-02-07T06:24:37;5.30;;;2.08;;
39930;SDS011;26635;-35.248;149.138;2023-02-07T06:27:07;6.72;;;2.25;;
39930;SDS011;26635;-35.248;149.138;2023-02-07T06:29:39;2.72;;;1.80;;
39930;SDS011;26635;-35.248;149.138;2023-02-07T06:32:10;4.43;;;1.67;;
39930;SDS011;26635;-35.248;149.138;2023-02-07T06:34:41;4.68;;;1.77;;
39930;SDS011;26635;-35.248;149.138;2023-02-07T06:37:13;3.63;;;1.75;;
39930;SDS011;26635;-35.248;149.138;2023-02-07T06:39:44;3.60;;;1.67;;
39930;SDS011;26635;-35.248;149.138;2023-02-07T06:42:14;3.65;;;1.77;;
39930;SDS011;26635;-35.248;149.138;2023-02-07T06:44:45;4.40;;;1.80;;
39930;SDS011;26635;-35.248;149.138;2023-02-07T06:47:15;2.47;;;1.58;;
39930;SDS011;26635;-35.248;149.138;2023-02-07T06:49:48;4.38;;;1.90;;
39930;SDS011;26635;-35.248;149.138;2023-02-07T06:52:18;2.10;;;1.55;;
39930;SDS011;26635;-35.248;149.138;2023-02-07T06:54:48;4.85;;;2.60;;
39930;SDS011;26635;-35.248;149.138;2023-02-07T06:57:19;2.40;;;1.77;;
39930;SDS011;26635;-35.248;149.138;2023-02-07T06:59:49;2.53;;;1.65;;
39930;SDS011;26635;-35.248;149.138;2023-02-07T07:02:20;3.85;;;2.15;;
39930;SDS011;26635;-35.248;149.138;2023-02-07T07:04:50;4.90;;;1.75;;
39930;SDS011;26635;-35.248;149.138;2023-02-07T07:07:20;4.85;;;1.65;;
39930;SDS011;26635;-35.248;149.138;2023-02-07T07:09:51;3.35;;;1.55;;
39930;SDS011;26635;-35.248;149.138;2023-02-07T07:12:21;3.35;;;2.25;;
39930;SDS011;26635;-35.248;149.138;2023-02-07T07:14:52;3.78;;;1.92;;
39930;SDS011;26635;-35.248;149.138;2023-02-07T07:17:23;3.80;;;1.80;;
39930;SDS011;26635;-35.248;149.138;2023-02-07T07:19:54;4.20;;;1.83;;
39930;SDS011;26635;-35.248;149.138;2023-02-07T07:22:25;3.65;;;2.05;;
39930;SDS011;26635;-35.248;149.138;2023-02-07T07:24:55;6.47;;;2.00;;
39930;SDS011;26635;-35.248;149.138;2023-02-07T07:27:26;2.97;;;1.77;;
39930;SDS011;26635;-35.248;149.138;2023-02-07T07:29:57;3.15;;;2.17;;
39930;SDS011;26635;-35.248;149.138;2023-02-07T07:32:29;5.00;;;2.33;;
39930;SDS011;26635;-35.248;149.138;2023-02-07T07:35:01;5.78;;;2.55;;
39930;SDS011;26635;-35.248;149.138;2023-02-07T07:37:33;7.82;;;2.33;;
39930;SDS011;26635;-35.248;149.138;2023-02-07T07:40:04;5.00;;;2.47;;
39930;SDS011;26635;-35.248;149.138;2023-02-07T07:42:35;4.55;;;2.20;;
39930;SDS011;26635;-35.248;149.138;2023-02-07T07:45:07;4.72;;;2.90;;
39930;SDS011;26635;-35.248;149.138;2023-02-07T07:47:39;8.32;;;2.83;;
39930;SDS011;26635;-35.248;149.138;2023-02-07T07:50:11;3.58;;;2.20;;
39930;SDS011;26635;-35.248;149.138;2023-02-07T07:52:43;4.90;;;2.38;;
39930;SDS011;26635;-35.248;149.138;2023-02-07T07:55:16;5.40;;;2.20;;
39930;SDS011;26635;-35.248;149.138;2023-02-07T07:57:47;4.90;;;2.58;;
39930;SDS011;26635;-35.248;149.138;2023-02-07T08:00:19;5.28;;;2.88;;
39930;SDS011;26635;-35.248;149.138;2023-02-07T08:02:49;4.20;;;2.40;;
39930;SDS011;26635;-35.248;149.138;2023-02-07T08:05:22;3.92;;;2.60;;
39930;SDS011;26635;-35.248;149.138;2023-02-07T08:07:53;3.45;;;2.67;;
39930;SDS011;26635;-35.248;149.138;2023-02-07T08:10:24;4.32;;;2.47;;
39930;SDS011;26635;-35.248;149.138;2023-02-07T08:12:56;3.72;;;2.67;;
39930;SDS011;26635;-35.248;149.138;2023-02-07T08:15:27;3.13;;;1.80;;
39930;SDS011;26635;-35.248;149.138;2023-02-07T08:17:58;3.83;;;2.53;;
39930;SDS011;26635;-35.248;149.138;2023-02-07T08:20:29;4.35;;;2.42;;
39930;SDS011;26635;-35.248;149.138;2023-02-07T08:23:00;5.93;;;2.63;;
39930;SDS011;26635;-35.248;149.138;2023-02-07T08:25:31;4.13;;;2.22;;
39930;SDS011;26635;-35.248;149.138;2023-02-07T08:28:02;3.15;;;2.38;;
39930;SDS011;26635;-35.248;149.138;2023-02-07T08:30:33;4.63;;;2.40;;
39930;SDS011;26635;-35.248;149.138;2023-02-07T08:33:06;3.17;;;2.15;;
39930;SDS011;26635;-35.248;149.138;2023-02-07T08:35:39;3.30;;;1.98;;
39930;SDS011;26635;-35.248;149.138;2023-02-07T08:38:09;5.50;;;2.28;;
39930;SDS011;26635;-35.248;149.138;2023-02-07T08:40:50;3.55;;;2.10;;
39930;SDS011;26635;-35.248;149.138;2023-02-07T08:43:22;4.32;;;1.40;;
39930;SDS011;26635;-35.248;149.138;2023-02-07T08:45:53;3.15;;;1.55;;
39930;SDS011;26635;-35.248;149.138;2023-02-07T08:48:25;3.78;;;1.80;;
39930;SDS011;26635;-35.248;149.138;2023-02-07T08:50:57;1.90;;;1.20;;
39930;SDS011;26635;-35.248;149.138;2023-02-07T08:53:36;3.15;;;1.20;;
39930;SDS011;26635;-35.248;149.138;2023-02-07T08:56:07;2.03;;;0.90;;
39930;SDS011;26635;-35.248;149.138;2023-02-07T08:58:38;2.55;;;1.13;;
39930;SDS011;26635;-35.248;149.138;2023-02-07T09:01:09;1.42;;;1.05;;
39930;SDS011;26635;-35.248;149.138;2023-02-07T09:03:40;2.88;;;0.90;;
39930;SDS011;26635;-35.248;149.138;2023-02-07T09:06:11;2.10;;;1.10;;
39930;SDS011;26635;-35.248;149.138;2023-02-07T09:08:41;1.48;;;0.80;;
39930;SDS011;26635;-35.248;149.138;2023-02-07T09:11:12;1.95;;;1.20;;
39930;SDS011;26635;-35.248;149.138;2023-02-07T09:13:43;2.10;;;1.13;;
39930;SDS011;26635;-35.248;149.138;2023-02-07T09:16:16;1.75;;;0.60;;
39930;SDS011;26635;-35.248;149.138;2023-02-07T09:18:48;1.88;;;1.02;;
39930;SDS011;26635;-35.248;149.138;2023-02-07T09:21:19;2.90;;;0.88;;
39930;SDS011;26635;-35.248;149.138;2023-02-07T09:23:52;2.08;;;0.80;;
39930;SDS011;26635;-35.248;149.138;2023-02-07T09:26:23;3.03;;;1.10;;
39930;SDS011;26635;-35.248;149.138;2023-02-07T09:29:00;2.45;;;0.90;;
39930;SDS011;26635;-35.248;149.138;2023-02-07T09:31:32;2.72;;;0.82;;
39930;SDS011;26635;-35.248;149.138;2023-02-07T09:34:05;2.03;;;1.08;;
39930;SDS011;26635;-35.248;149.138;2023-02-07T09:36:35;1.55;;;1.10;;
39930;SDS011;26635;-35.248;149.138;2023-02-07T09:39:06;1.85;;;1.00;;
39930;SDS011;26635;-35.248;149.138;2023-02-07T09:47:20;1.70;;;0.90;;
39930;SDS011;26635;-35.248;149.138;2023-02-07T09:50:35;2.88;;;0.90;;
39930;SDS011;26635;-35.248;149.138;2023-02-07T09:53:18;2.10;;;0.98;;
39930;SDS011;26635;-35.248;149.138;2023-02-07T09:55:57;1.02;;;0.70;;
39930;SDS011;26635;-35.248;149.138;2023-02-07T09:58:40;1.98;;;0.95;;
39930;SDS011;26635;-35.248;149.138;2023-02-07T10:01:43;1.65;;;0.80;;
39930;SDS011;26635;-35.248;149.138;2023-02-07T10:06:51;1.45;;;0.90;;
39930;SDS011;26635;-35.248;149.138;2023-02-07T10:09:32;1.40;;;0.82;;
39930;SDS011;26635;-35.248;149.138;2023-02-07T10:31:13;1.35;;;0.55;;
39930;SDS011;26635;-35.248;149.138;2023-02-07T10:33:58;1.23;;;0.65;;
39930;SDS011;26635;-35.248;149.138;2023-02-07T10:36:42;0.55;;;0.30;;
39930;SDS011;26635;-35.248;149.138;2023-02-07T10:39:18;0.40;;;0.40;;
39930;SDS011;26635;-35.248;149.138;2023-02-07T10:42:00;0.98;;;0.40;;
39930;SDS011;26635;-35.248;149.138;2023-02-07T10:44:35;1.00;;;0.38;;
39930;SDS011;26635;-35.248;149.138;2023-02-07T10:47:06;0.73;;;0.30;;
39930;SDS011;26635;-35.248;149.138;2023-02-07T10:49:46;0.60;;;0.30;;
39930;SDS011;26635;-35.248;149.138;2023-02-07T10:52:27;0.70;;;0.30;;
39930;SDS011;26635;-35.248;149.138;2023-02-07T10:55:04;1.15;;;0.40;;
39930;SDS011;26635;-35.248;149.138;2023-02-07T10:57:38;1.08;;;0.40;;
39930;SDS011;26635;-35.248;149.138;2023-02-07T11:00:27;0.65;;;0.30;;
39930;SDS011;26635;-35.248;149.138;2023-02-07T11:03:00;0.30;;;0.20;;
39930;SDS011;26635;-35.248;149.138;2023-02-07T11:05:34;1.58;;;0.30;;
39930;SDS011;26635;-35.248;149.138;2023-02-07T11:10:56;0.57;;;0.20;;
39930;SDS011;26635;-35.248;149.138;2023-02-07T11:13:29;0.22;;;0.20;;
39930;SDS011;26635;-35.248;149.138;2023-02-07T11:16:14;0.70;;;0.30;;
39930;SDS011;26635;-35.248;149.138;2023-02-07T11:21:34;0.82;;;0.30;;
39930;SDS011;26635;-35.248;149.138;2023-02-07T11:29:26;0.50;;;0.13;;
39930;SDS011;26635;-35.248;149.138;2023-02-07T11:31:59;0.90;;;0.20;;
39930;SDS011;26635;-35.248;149.138;2023-02-07T11:34:40;0.47;;;0.20;;
39930;SDS011;26635;-35.248;149.138;2023-02-07T11:37:19;0.32;;;0.30;;
39930;SDS011;26635;-35.248;149.138;2023-02-07T11:39:55;0.22;;;0.10;;
39930;SDS011;26635;-35.248;149.138;2023-02-07T11:45:39;1.88;;;0.35;;
39930;SDS011;26635;-35.248;149.138;2023-02-07T11:48:30;0.93;;;0.22;;
39930;SDS011;26635;-35.248;149.138;2023-02-07T11:51:05;0.45;;;0.25;;
39930;SDS011;26635;-35.248;149.138;2023-02-07T11:53:46;0.88;;;0.45;;
39930;SDS011;26635;-35.248;149.138;2023-02-07T11:56:38;0.65;;;0.20;;
39930;SDS011;26635;-35.248;149.138;2023-02-07T11:59:12;0.28;;;0.28;;
39930;SDS011;26635;-35.248;149.138;2023-02-07T12:01:54;0.40;;;0.20;;
39930;SDS011;26635;-35.248;149.138;2023-02-07T12:04:27;0.22;;;0.13;;
39930;SDS011;26635;-35.248;149.138;2023-02-07T12:07:11;0.35;;;0.17;;
39930;SDS011;26635;-35.248;149.138;2023-02-07T12:09:54;0.57;;;0.20;;
39930;SDS011;26635;-35.248;149.138;2023-02-07T12:15:32;0.43;;;0.20;;
39930;SDS011;26635;-35.248;149.138;2023-02-07T12:18:28;0.30;;;0.15;;
39930;SDS011;26635;-35.248;149.138;2023-02-07T12:23:59;0.52;;;0.13;;
39930;SDS011;26635;-35.248;149.138;2023-02-07T12:27:01;1.75;;;0.38;;
39930;SDS011;26635;-35.248;149.138;2023-02-07T12:44:00;0.20;;;0.20;;
39930;SDS011;26635;-35.248;149.138;2023-02-07T12:46:42;1.92;;;0.20;;
39930;SDS011;26635;-35.248;149.138;2023-02-07T12:52:02;0.43;;;0.20;;
39930;SDS011;26635;-35.248;149.138;2023-02-07T12:54:58;0.40;;;0.30;;
39930;SDS011;26635;-35.248;149.138;2023-02-07T12:57:38;0.20;;;0.10;;
39930;SDS011;26635;-35.248;149.138;2023-02-07T13:00:31;0.38;;;0.10;;
39930;SDS011;26635;-35.248;149.138;2023-02-07T13:06:10;0.22;;;0.20;;
39930;SDS011;26635;-35.248;149.138;2023-02-07T13:09:17;0.38;;;0.10;;
39930;SDS011;26635;-35.248;149.138;2023-02-07T13:12:20;1.17;;;0.20;;
39930;SDS011;26635;-35.248;149.138;2023-02-07T13:15:02;0.45;;;0.30;;
39930;SDS011;26635;-35.248;149.138;2023-02-07T13:23:35;0.52;;;0.10;;
39930;SDS011;26635;-35.248;149.138;2023-02-07T13:26:19;0.35;;;0.20;;
39930;SDS011;26635;-35.248;149.138;2023-02-07T13:31:39;0.35;;;0.15;;
39930;SDS011;26635;-35.248;149.138;2023-02-07T13:34:23;0.82;;;0.10;;
39930;SDS011;26635;-35.248;149.138;2023-02-07T13:37:00;0.13;;;0.10;;
39930;SDS011;26635;-35.248;149.138;2023-02-07T13:43:29;0.10;;;0.10;;
39930;SDS011;26635;-35.248;149.138;2023-02-07T13:48:40;0.13;;;0.10;;
39930;SDS011;26635;-35.248;149.138;2023-02-07T13:54:28;0.38;;;0.20;;
39930;SDS011;26635;-35.248;149.138;2023-02-07T13:57:13;0.20;;;0.20;;
39930;SDS011;26635;-35.248;149.138;2023-02-07T14:00:25;0.43;;;0.10;;
39930;SDS011;26635;-35.248;149.138;2023-02-07T14:03:32;0.28;;;0.10;;
39930;SDS011;26635;-35.248;149.138;2023-02-07T14:06:24;0.10;;;0.10;;
39930;SDS011;26635;-35.248;149.138;2023-02-07T14:09:05;0.40;;;0.20;;
39930;SDS011;26635;-35.248;149.138;2023-02-07T14:12:12;0.20;;;0.10;;
39930;SDS011;26635;-35.248;149.138;2023-02-07T14:14:45;1.35;;;0.20;;
39930;SDS011;26635;-35.248;149.138;2023-02-07T14:20:00;1.65;;;0.30;;
39930;SDS011;26635;-35.248;149.138;2023-02-07T14:25:20;0.40;;;0.10;;
39930;SDS011;26635;-35.248;149.138;2023-02-07T14:30:55;0.20;;;0.10;;
39930;SDS011;26635;-35.248;149.138;2023-02-07T14:33:34;2.40;;;0.20;;
39930;SDS011;26635;-35.248;149.138;2023-02-07T14:41:49;0.10;;;0.10;;
39930;SDS011;26635;-35.248;149.138;2023-02-07T14:44:34;0.52;;;0.25;;
39930;SDS011;26635;-35.248;149.138;2023-02-07T14:47:07;0.20;;;0.10;;
39930;SDS011;26635;-35.248;149.138;2023-02-07T14:49:57;0.65;;;0.10;;
39930;SDS011;26635;-35.248;149.138;2023-02-07T14:52:29;0.35;;;0.10;;
39930;SDS011;26635;-35.248;149.138;2023-02-07T14:55:07;0.40;;;0.10;;
39930;SDS011;26635;-35.248;149.138;2023-02-07T15:00:32;0.15;;;0.10;;
39930;SDS011;26635;-35.248;149.138;2023-02-07T15:03:19;0.30;;;0.10;;
39930;SDS011;26635;-35.248;149.138;2023-02-07T15:05:52;0.30;;;0.10;;
39930;SDS011;26635;-35.248;149.138;2023-02-07T15:08:31;0.28;;;0.10;;
39930;SDS011;26635;-35.248;149.138;2023-02-07T15:11:04;0.10;;;0.10;;
39930;SDS011;26635;-35.248;149.138;2023-02-07T15:16:17;0.50;;;0.15;;
39930;SDS011;26635;-35.248;149.138;2023-02-07T15:18:55;0.10;;;0.10;;
39930;SDS011;26635;-35.248;149.138;2023-02-07T15:21:45;0.30;;;0.20;;
39930;SDS011;26635;-35.248;149.138;2023-02-07T15:24:36;0.65;;;0.20;;
39930;SDS011;26635;-35.248;149.138;2023-02-07T15:27:22;0.38;;;0.10;;
39930;SDS011;26635;-35.248;149.138;2023-02-07T15:30:00;0.08;;;0.00;;
39930;SDS011;26635;-35.248;149.138;2023-02-07T15:32:44;0.10;;;0.10;;
39930;SDS011;26635;-35.248;149.138;2023-02-07T15:35:58;0.20;;;0.10;;
39930;SDS011;26635;-35.248;149.138;2023-02-07T15:38:15;0.13;;;0.10;;
39930;SDS011;26635;-35.248;149.138;2023-02-07T15:40:55;0.40;;;0.10;;
39930;SDS011;26635;-35.248;149.138;2023-02-07T15:43:28;0.10;;;0.00;;
39930;SDS011;26635;-35.248;149.138;2023-02-07T15:46:08;0.40;;;0.10;;
39930;SDS011;26635;-35.248;149.138;2023-02-07T15:48:47;0.22;;;0.10;;
39930;SDS011;26635;-35.248;149.138;2023-02-07T15:51:26;0.10;;;0.10;;
39930;SDS011;26635;-35.248;149.138;2023-02-07T15:54:01;0.45;;;0.10;;
39930;SDS011;26635;-35.248;149.138;2023-02-07T15:56:32;0.30;;;0.10;;
39930;SDS011;26635;-35.248;149.138;2023-02-07T15:59:08;0.08;;;0.08;;
39930;SDS011;26635;-35.248;149.138;2023-02-07T16:01:42;0.10;;;0.10;;
39930;SDS011;26635;-35.248;149.138;2023-02-07T16:04:22;0.10;;;0.10;;
39930;SDS011;26635;-35.248;149.138;2023-02-07T16:07:02;0.43;;;0.20;;
39930;SDS011;26635;-35.248;149.138;2023-02-07T16:09:40;0.10;;;0.10;;
39930;SDS011;26635;-35.248;149.138;2023-02-07T16:12:37;0.10;;;0.10;;
39930;SDS011;26635;-35.248;149.138;2023-02-07T16:15:23;0.10;;;0.03;;
39930;SDS011;26635;-35.248;149.138;2023-02-07T16:17:57;0.00;;;0.00;;
39930;SDS011;26635;-35.248;149.138;2023-02-07T16:20:28;0.98;;;0.10;;
39930;SDS011;26635;-35.248;149.138;2023-02-07T16:23:05;0.30;;;0.10;;
39930;SDS011;26635;-35.248;149.138;2023-02-07T16:25:37;0.10;;;0.10;;
39930;SDS011;26635;-35.248;149.138;2023-02-07T16:28:11;0.55;;;0.15;;
39930;SDS011;26635;-35.248;149.138;2023-02-07T16:30:44;0.30;;;0.10;;
39930;SDS011;26635;-35.248;149.138;2023-02-07T16:33:16;0.75;;;0.10;;
39930;SDS011;26635;-35.248;149.138;2023-02-07T16:35:47;0.10;;;0.10;;
39930;SDS011;26635;-35.248;149.138;2023-02-07T16:38:22;0.20;;;0.10;;
39930;SDS011;26635;-35.248;149.138;2023-02-07T16:40:55;0.17;;;0.08;;
39930;SDS011;26635;-35.248;149.138;2023-02-07T16:43:31;0.00;;;0.00;;
39930;SDS011;26635;-35.248;149.138;2023-02-07T16:46:03;0.25;;;0.10;;
39930;SDS011;26635;-35.248;149.138;2023-02-07T16:48:34;0.10;;;0.10;;
39930;SDS011;26635;-35.248;149.138;2023-02-07T16:51:07;0.68;;;0.10;;
39930;SDS011;26635;-35.248;149.138;2023-02-07T16:53:37;0.08;;;0.08;;
39930;SDS011;26635;-35.248;149.138;2023-02-07T16:56:12;1.75;;;0.10;;
39930;SDS011;26635;-35.248;149.138;2023-02-07T16:58:47;0.32;;;0.10;;
39930;SDS011;26635;-35.248;149.138;2023-02-07T17:01:19;0.20;;;0.10;;
39930;SDS011;26635;-35.248;149.138;2023-02-07T17:03:52;0.57;;;0.10;;
39930;SDS011;26635;-35.248;149.138;2023-02-07T17:06:23;0.47;;;0.00;;
39930;SDS011;26635;-35.248;149.138;2023-02-07T17:08:54;0.10;;;0.00;;
39930;SDS011;26635;-35.248;149.138;2023-02-07T17:11:26;0.20;;;0.10;;
39930;SDS011;26635;-35.248;149.138;2023-02-07T17:13:57;0.08;;;0.00;;
39930;SDS011;26635;-35.248;149.138;2023-02-07T17:16:28;0.40;;;0.10;;
39930;SDS011;26635;-35.248;149.138;2023-02-07T17:18:59;0.50;;;0.10;;
39930;SDS011;26635;-35.248;149.138;2023-02-07T17:21:31;0.93;;;0.10;;
39930;SDS011;26635;-35.248;149.138;2023-02-07T17:24:03;0.68;;;0.20;;